Time;durP1;ratioP1;P1;durP2;ratioP2;P2;SDS_P1;SDS_P2;PMS_P1;PMS_P2;Temp;Humidity;BMP_temperature;BMP_pressure;BME280_temperature;BME280_humidity;BME280_pressure;Samples;Min_cycle;Max_cycle;Signal;HPM_P1;HPM_P2
2022/06/09 00:02:39;;;;;;;;;;;;;;;30.31;55.17;97011.28;4932606;29;20054;-66
2022/06/09 00:05:22;;;;;;;72.80;30.67;;;;;;;30.27;56.14;97013.53;4939546;28;20022;-65
2022/06/09 00:08:12;;;;;;;67.03;30.98;;;;;;;30.23;55.52;97006.22;4890910;29;20922;-66
2022/06/09 00:11:02;;;;;;;60.20;33.08;;;;;;;30.20;58.52;97007.44;4910016;29;20086;-65
2022/06/09 00:14:03;;;;;;;72.95;33.63;;;;;;;30.12;53.24;97009.53;4873194;29;20767;-67
2022/06/09 00:16:39;;;;;;;75.25;34.75;;;;;;;30.13;56.04;97016.47;4902372;29;20052;-66
2022/06/09 00:19:33;;;;;;;90.28;37.13;;;;;;;30.12;54.68;97014.84;4909764;29;20149;-65
2022/06/09 00:22:10;;;;;;;81.53;37.95;;;;;;;30.12;55.46;97025.47;4928257;29;20086;-65
2022/06/09 00:24:59;;;;;;;74.95;37.85;;;;;;;30.10;55.59;97025.66;4909695;29;20075;-66
2022/06/09 00:27:42;;;;;;;86.03;39.10;;;;;;;30.08;53.12;97030.41;4928475;29;20547;-66
2022/06/09 00:30:30;;;;;;;81.30;37.95;;;;;;;30.11;55.46;97029.16;4928113;29;20758;-66
2022/06/09 00:33:12;;;;;;;78.53;37.65;;;;;;;30.14;53.72;97034.06;4911753;29;20070;-66
2022/06/09 00:36:02;;;;;;;71.05;37.47;;;;;;;30.14;54.54;97039.38;4909493;29;20056;-65
2022/06/09 00:38:51;;;;;;;73.38;36.63;;;;;;;30.15;54.31;97046.31;4910122;28;20127;-66
2022/06/09 00:41:49;;;;;;;69.38;34.72;;;;;;;30.13;52.89;97043.03;4908984;29;20052;-66
2022/06/09 00:44:28;;;;;;;77.70;32.83;;;;;;;30.13;49.59;97046.53;4908651;29;20051;-65
2022/06/09 00:47:37;;;;;;;70.07;31.55;;;;;;;30.21;53.78;97045.47;4909300;29;20047;-66
2022/06/09 00:50:20;;;;;;;53.75;26.88;;;;;;;30.24;50.32;97055.69;4909034;29;20063;-64
2022/06/09 00:53:17;;;;;;;56.25;27.00;;;;;;;30.30;53.31;97060.16;4908961;29;20059;-65
2022/06/09 00:56:07;;;;;;;53.53;27.92;;;;;;;30.31;54.55;97059.13;4909163;29;20685;-65
2022/06/09 00:58:53;;;;;;;60.05;26.15;;;;;;;30.34;46.22;97064.00;4908656;29;20044;-65
2022/06/09 01:01:43;;;;;;;45.72;22.48;;;;;;;30.42;49.31;97063.78;4897331;29;20107;-66
2022/06/09 01:04:40;;;;;;;44.83;20.30;;;;;;;30.43;48.30;97068.06;4873438;29;20060;-65
2022/06/09 01:07:23;;;;;;;41.55;19.02;;;;;;;30.53;48.47;97067.66;4889068;29;20064;-66
2022/06/09 01:10:13;;;;;;;37.13;19.23;;;;;;;30.59;48.95;97067.63;4892163;29;20574;-66
2022/06/09 01:12:56;;;;;;;39.25;18.05;;;;;;;30.58;45.95;97073.97;4890479;29;20713;-66
2022/06/09 01:16:13;;;;;;;36.40;17.48;;;;;;;30.64;47.31;97073.13;4890487;29;20479;-66
2022/06/09 01:19:50;;;;;;;40.25;16.92;;;;;;;30.66;42.91;97076.38;4891053;29;20135;-66
2022/06/09 01:23:02;;;;;;;34.60;15.60;;;;;;;30.77;50.80;97067.75;4836215;29;20061;-66
2022/06/09 01:26:23;;;;;;;36.72;16.45;;;;;;;30.77;49.59;97078.38;4889840;29;20056;-66
2022/06/09 01:29:21;;;;;;;45.63;17.80;;;;;;;30.81;48.37;97081.41;4871204;29;20151;-65
2022/06/09 01:32:13;;;;;;;48.90;17.23;;;;;;;30.91;49.97;97078.28;4870671;29;20124;-66
2022/06/09 01:35:06;;;;;;;38.67;17.95;;;;;;;30.92;50.58;97086.06;4871697;29;20529;-65
2022/06/09 01:38:04;;;;;;;37.20;18.35;;;;;;;31.02;47.68;97096.25;4875434;29;20053;-66
2022/06/09 01:40:53;;;;;;;37.03;18.15;;;;;;;31.13;47.19;97093.72;4871235;29;20579;-66
2022/06/09 01:43:42;;;;;;;44.22;18.80;;;;;;;31.18;51.08;97093.09;4877813;29;20040;-66
2022/06/09 01:46:37;;;;;;;39.58;18.80;;;;;;;31.30;46.97;97098.53;4888567;29;20052;-66
2022/06/09 01:49:29;;;;;;;48.22;20.88;;;;;;;31.45;47.60;97102.50;4889436;29;20155;-66
2022/06/09 01:52:19;;;;;;;42.70;20.80;;;;;;;31.80;46.82;97094.06;4891489;29;20098;-68
2022/06/09 01:55:04;;;;;;;43.28;18.77;;;;;;;32.06;44.12;97109.81;4905555;29;20429;-66
2022/06/09 01:58:07;;;;;;;42.50;19.17;;;;;;;32.25;49.14;97105.31;4923347;29;20063;-67
2022/06/09 02:00:44;;;;;;;36.78;15.93;;;;;;;32.63;42.86;97108.59;4909226;29;20052;-66
2022/06/09 02:03:47;;;;;;;41.03;16.90;;;;;;;32.86;46.33;97113.25;4926897;29;20062;-67
2022/06/09 02:06:25;;;;;;;73.13;17.42;;;;;;;33.21;42.75;97116.06;4922142;29;20064;-66
2022/06/09 02:09:16;;;;;;;42.38;14.98;;;;;;;33.35;43.75;97106.81;4906625;29;20056;-66
2022/06/09 02:12:03;;;;;;;38.17;14.38;;;;;;;33.69;42.26;97110.56;4908133;29;20802;-66
2022/06/09 02:15:51;;;;;;;43.45;14.68;;;;;;;33.83;40.98;97121.09;4905675;29;20073;-67
2022/06/09 02:18:42;;;;;;;28.55;12.65;;;;;;;34.29;40.95;97115.75;4890025;29;20052;-67
2022/06/09 02:21:43;;;;;;;32.53;13.77;;;;;;;34.47;41.26;97120.97;4895965;29;20051;-65
2022/06/09 02:24:19;;;;;;;37.63;14.35;;;;;;;34.52;41.36;97123.72;4891905;29;20044;-66
2022/06/09 02:27:09;;;;;;;32.10;12.77;;;;;;;34.80;38.62;97127.53;4890493;29;20055;-66
2022/06/09 02:29:59;;;;;;;35.92;13.65;;;;;;;34.89;43.04;97120.72;4895033;29;20174;-66
2022/06/09 02:32:41;;;;;;;38.33;12.27;;;;;;;34.97;36.27;97125.69;4896731;29;20147;-65
2022/06/09 02:35:30;;;;;;;30.58;12.43;;;;;;;35.42;40.34;97130.31;4895527;29;20068;-65
2022/06/09 02:38:12;;;;;;;40.50;14.00;;;;;;;35.57;36.03;97125.19;4883196;28;20061;-65
2022/06/09 02:41:01;;;;;;;35.78;13.00;;;;;;;35.53;37.31;97124.03;4897259;29;20397;-66
2022/06/09 02:43:43;;;;;;;26.83;13.15;;;;;;;35.66;40.76;97124.56;4913075;29;20059;-65
2022/06/09 02:46:32;;;;;;;27.65;12.88;;;;;;;35.57;37.95;97125.19;4909041;29;20051;-66
2022/06/09 02:49:16;;;;;;;40.92;13.32;;;;;;;35.80;37.67;97119.69;4910263;29;20153;-66
2022/06/09 02:52:04;;;;;;;44.88;15.88;;;;;;;36.11;34.62;97120.97;4910384;29;20182;-66
2022/06/09 02:54:46;;;;;;;43.03;14.30;;;;;;;36.09;35.74;97124.94;4911092;29;20048;-66
2022/06/09 02:57:35;;;;;;;36.95;14.07;;;;;;;36.64;34.13;97131.06;4911261;29;20055;-66
2022/06/09 03:00:18;;;;;;;40.20;13.43;;;;;;;36.83;38.25;97125.44;4909891;29;20052;-66
2022/06/09 03:03:10;;;;;;;40.95;15.13;;;;;;;37.16;34.93;97126.09;4911008;29;20115;-66
2022/06/09 03:05:52;;;;;;;37.58;14.75;;;;;;;37.13;38.37;97123.09;4896884;29;20052;-66
2022/06/09 03:08:41;;;;;;;47.28;14.70;;;;;;;36.85;34.88;97117.94;4929688;29;20142;-66
2022/06/09 03:11:23;;;;;;;43.40;13.43;;;;;;;37.28;39.59;97115.19;4929641;29;20055;-66
2022/06/09 03:14:12;;;;;;;41.63;16.52;;;;;;;37.53;39.33;97112.72;4929899;29;20051;-66
2022/06/09 03:17:02;;;;;;;34.83;14.63;;;;;;;37.61;37.51;97116.84;4930054;29;20060;-67
2022/06/09 03:19:51;;;;;;;36.42;15.65;;;;;;;37.73;35.33;97119.38;4925022;29;20150;-66
2022/06/09 03:22:34;;;;;;;;;;;;;;;38.04;39.36;97115.81;4930357;29;20059;-66
2022/06/09 03:25:22;;;;;;;38.75;14.63;;;;;;;37.83;32.56;97127.50;4929210;29;19927;-66
2022/06/09 03:28:07;;;;;;;37.78;15.32;;;;;;;38.08;37.01;97126.88;4910776;29;20078;-66
2022/06/09 03:30:55;;;;;;;42.90;14.90;;;;;;;38.28;35.10;97125.13;4892073;29;20056;-66
2022/06/09 03:33:38;;;;;;;46.15;17.70;;;;;;;38.29;32.50;97126.75;4898499;29;20200;-66
2022/06/09 03:36:27;;;;;;;45.92;15.25;;;;;;;38.43;33.34;97128.97;4891445;29;20064;-67
2022/06/09 03:39:24;;;;;;;40.03;15.93;;;;;;;38.49;37.54;97134.13;4901847;29;20047;-68
2022/06/09 03:42:00;;;;;;;39.15;15.30;;;;;;;38.75;33.19;97131.56;4919897;29;20048;-67
2022/06/09 03:44:48;;;;;;;54.78;16.67;;;;;;;38.85;30.65;97132.41;4919166;29;20071;-67
2022/06/09 03:47:30;;;;;;;52.72;16.98;;;;;;;38.37;32.00;97130.03;4917656;29;20576;-68
2022/06/09 03:50:29;;;;;;;45.65;15.27;;;;;;;38.63;33.11;97126.41;4916857;29;20052;-68
2022/06/09 03:53:05;;;;;;;48.78;16.02;;;;;;;39.09;34.99;97127.41;4921789;29;20092;-67
2022/06/09 03:56:02;;;;;;;48.45;16.20;;;;;;;38.38;31.75;97115.50;4928979;29;20071;-68
2022/06/09 03:58:38;;;;;;;46.60;16.67;;;;;;;38.92;32.92;97118.69;4925350;29;20051;-67
2022/06/09 04:01:26;;;;;;;56.33;17.08;;;;;;;38.84;30.12;97127.28;4928748;29;20654;-68
2022/06/09 04:04:10;;;;;;;54.25;15.65;;;;;;;39.03;30.58;97121.16;4921211;29;20047;-68
2022/06/09 04:06:59;;;;;;;44.97;15.73;;;;;;;39.31;36.46;97116.38;4910403;29;20048;-69
2022/06/09 04:09:48;;;;;;;43.38;15.02;;;;;;;39.60;38.75;97112.09;4909859;29;20056;-67
2022/06/09 04:12:30;;;;;;;42.47;15.53;;;;;;;39.24;32.75;97115.81;4912241;29;20048;-68
2022/06/09 04:15:21;;;;;;;56.72;18.25;;;;;;;39.69;32.20;97115.06;4915551;29;20048;-68
2022/06/09 04:18:11;;;;;;;99.35;18.17;;;;;;;39.87;33.95;97116.44;4932861;29;20130;-67
2022/06/09 04:21:01;;;;;;;54.60;15.25;;;;;;;39.61;32.24;97113.72;4932820;28;20123;-67
2022/06/09 04:23:44;;;;;;;57.10;14.68;;;;;;;39.82;34.65;97103.75;4917260;29;20055;-67
2022/06/09 04:26:38;;;;;;;47.33;15.23;;;;;;;39.92;33.19;97105.63;4894599;29;20052;-67
2022/06/09 04:29:20;;;;;;;50.72;14.00;;;;;;;40.02;33.46;97113.69;4909324;29;20064;-67
2022/06/09 04:32:09;;;;;;;37.13;13.77;;;;;;;40.23;32.18;97109.88;4909727;29;20369;-67
2022/06/09 04:34:58;;;;;;;69.65;13.40;;;;;;;40.20;29.77;97107.72;4909642;29;20115;-67
2022/06/09 04:38:01;;;;;;;52.15;13.13;;;;;;;40.06;30.35;97104.00;4909485;29;20120;-67
2022/06/09 04:40:43;;;;;;;53.80;14.80;;;;;;;40.32;34.39;97108.25;4890163;29;20456;-66
2022/06/09 04:43:33;;;;;;;57.13;12.18;;;;;;;40.52;31.56;97110.91;4890013;29;20135;-68
2022/06/09 04:46:18;;;;;;;42.45;13.73;;;;;;;40.82;33.73;97103.75;4879750;29;20049;-66
2022/06/09 04:49:07;;;;;;;50.88;15.57;;;;;;;41.03;34.45;97107.94;4888963;29;20060;-67
2022/06/09 04:51:56;;;;;;;44.92;12.25;;;;;;;40.72;37.49;97117.31;4888113;29;20139;-68
2022/06/09 04:54:45;;;;;;;63.38;13.45;;;;;;;40.82;33.01;97111.88;4888607;29;20076;-69
2022/06/09 04:57:27;;;;;;;59.55;12.88;;;;;;;40.60;33.44;97120.31;4899143;29;20512;-68
2022/06/09 05:00:20;;;;;;;60.75;11.07;;;;;;;40.80;32.28;97124.84;4908476;29;20443;-69
2022/06/09 05:03:03;;;;;;;42.97;10.70;;;;;;;40.74;32.36;97115.94;4905123;29;20064;-68
2022/06/09 05:05:53;;;;;;;54.88;11.98;;;;;;;40.43;29.28;97125.25;4896534;29;20052;-67
2022/06/09 05:08:35;;;;;;;45.63;10.70;;;;;;;40.71;34.25;97113.00;4897640;29;20057;-67
2022/06/09 05:11:25;;;;;;;51.17;10.50;;;;;;;40.64;34.62;97112.44;4896986;29;20040;-67
2022/06/09 05:14:07;;;;;;;51.65;11.85;;;;;;;40.89;35.53;97118.56;4897715;29;20120;-68
2022/06/09 05:16:56;;;;;;;51.67;11.75;;;;;;;40.96;33.13;97112.84;4882922;29;20051;-67
2022/06/09 05:19:39;;;;;;;47.75;11.32;;;;;;;41.07;30.73;97109.00;4898899;29;20056;-68
2022/06/09 05:22:28;;;;;;;50.95;11.27;;;;;;;41.11;31.83;97109.31;4897217;29;20707;-67
2022/06/09 05:25:12;;;;;;;50.92;10.77;;;;;;;40.97;31.20;97103.66;4898899;29;20044;-67
2022/06/09 05:28:00;;;;;;;42.67;11.93;;;;;;;41.10;35.45;97105.00;4898677;29;20060;-67
2022/06/09 05:30:42;;;;;;;49.55;12.40;;;;;;;41.18;34.02;97112.50;4890444;29;20052;-67
2022/06/09 05:33:32;;;;;;;32.10;9.00;;;;;;;41.33;30.47;97108.88;4909562;29;20048;-67
2022/06/09 05:36:14;;;;;;;50.90;9.63;;;;;;;41.50;31.33;97112.00;4911499;29;20080;-67
2022/06/09 05:45:19;;;;;;;57.85;11.13;;;;;;;41.37;30.43;97099.91;4908788;29;20043;-68
2022/06/09 05:47:55;;;;;;;44.50;11.30;;;;;;;41.57;34.16;97102.50;4908787;29;20051;-67
2022/06/09 05:50:52;;;;;;;40.33;10.05;;;;;;;41.56;28.89;97103.59;4931154;29;20053;-68
2022/06/09 05:53:28;;;;;;;57.00;11.30;;;;;;;41.20;29.41;97102.19;4936594;29;20044;-68
2022/06/09 05:56:18;;;;;;;49.67;11.70;;;;;;;41.10;30.12;97096.88;4917485;29;20054;-68
2022/06/09 05:59:00;;;;;;;;;;;;;;;41.07;32.46;97092.78;4933500;29;20570;-69
2022/06/09 06:01:55;;;;;;;62.90;13.30;;;;;;;41.11;33.07;97093.88;4943006;28;19926;-68
2022/06/09 06:04:32;;;;;;;57.88;11.27;;;;;;;41.38;32.49;97098.00;4932777;28;20052;-67
2022/06/09 06:07:21;;;;;;;41.08;11.35;;;;;;;41.54;31.00;97089.53;4934920;28;20138;-68
2022/06/09 06:10:03;;;;;;;62.50;10.83;;;;;;;41.56;31.97;97079.25;4936819;29;20158;-67
2022/06/09 06:12:52;;;;;;;43.10;10.48;;;;;;;41.34;29.80;97080.75;4937520;28;20063;-67
2022/06/09 06:15:34;;;;;;;44.78;10.20;;;;;;;41.55;29.29;97077.63;4931345;28;20047;-67
2022/06/09 06:18:30;;;;;;;39.88;9.07;;;;;;;41.38;27.88;97079.09;4929873;29;20118;-68
2022/06/09 06:21:07;;;;;;;44.58;9.43;;;;;;;41.25;27.86;97078.66;4926284;29;20048;-67
2022/06/09 06:24:03;;;;;;;39.28;8.27;;;;;;;41.47;29.57;97080.91;4930998;28;20118;-66
2022/06/09 06:26:39;;;;;;;36.95;8.48;;;;;;;41.48;27.76;97077.13;4926417;29;20058;-67
2022/06/09 06:29:30;;;;;;;47.30;8.45;;;;;;;41.58;32.58;97077.06;4927163;29;20051;-67
2022/06/09 06:32:18;;;;;;;44.95;8.50;;;;;;;41.48;29.39;97069.00;4927174;29;20056;-66
2022/06/09 06:35:01;;;;;;;45.03;8.93;;;;;;;41.60;30.87;97066.75;4927217;29;20060;-66
2022/06/09 06:37:55;;;;;;;39.35;7.38;;;;;;;41.66;31.48;97064.81;4908410;29;20362;-66
2022/06/09 06:40:44;;;;;;;40.27;8.27;;;;;;;41.60;30.41;97063.22;4900240;29;20040;-65
2022/06/09 06:43:34;;;;;;;45.15;7.60;;;;;;;41.54;29.45;97061.66;4908569;29;20075;-66
2022/06/09 06:46:23;;;;;;;37.78;7.60;;;;;;;41.33;28.33;97058.31;4907640;29;20056;-66
2022/06/09 06:49:08;;;;;;;37.63;9.38;;;;;;;41.31;27.04;97060.47;4921461;29;20051;-66
2022/06/09 06:51:57;;;;;;;41.05;7.30;;;;;;;41.59;30.97;97053.50;4931521;28;20138;-66
2022/06/09 06:54:39;;;;;;;45.67;7.57;;;;;;;41.14;26.39;97055.47;4920079;29;20462;-66
2022/06/09 06:57:28;;;;;;;33.70;6.95;;;;;;;41.01;25.64;97060.69;4921939;29;20052;-66
2022/06/09 07:00:15;;;;;;;50.97;7.95;;;;;;;41.37;28.24;97053.13;4910229;29;20064;-65
2022/06/09 07:03:03;;;;;;;44.75;8.00;;;;;;;41.41;29.14;97049.59;4935312;29;20075;-67
2022/06/09 07:06:11;;;;;;;49.65;9.38;;;;;;;41.35;28.96;97055.34;4915481;29;20055;-66
2022/06/09 07:09:00;;;;;;;40.03;8.43;;;;;;;41.17;27.60;97044.09;4917442;29;20059;-66
2022/06/09 07:11:45;;;;;;;44.50;9.13;;;;;;;41.28;30.23;97050.22;4911745;29;20115;-66
2022/06/09 07:14:34;;;;;;;49.85;8.35;;;;;;;41.22;31.42;97044.06;4917854;29;20122;-66
2022/06/09 07:17:17;;;;;;;57.63;9.90;;;;;;;41.24;29.31;97044.59;4920916;29;20460;-66
2022/06/09 07:20:05;;;;;;;44.15;8.60;;;;;;;41.34;32.08;97032.06;4920147;29;20107;-66
2022/06/09 07:22:47;;;;;;;39.73;8.13;;;;;;;41.31;29.07;97038.03;4919291;29;20051;-67
2022/06/09 07:25:36;;;;;;;43.38;7.40;;;;;;;41.37;27.53;97042.31;4916209;29;20524;-67
2022/06/09 07:28:18;;;;;;;44.53;10.27;;;;;;;41.47;27.18;97040.34;4927371;29;20064;-67
2022/06/09 07:31:08;;;;;;;38.17;8.23;;;;;;;41.42;27.52;97036.88;4929347;29;20106;-67
2022/06/09 07:33:57;;;;;;;35.55;8.15;;;;;;;41.44;28.94;97037.38;4925137;29;20055;-66
2022/06/09 07:36:47;;;;;;;45.33;7.95;;;;;;;41.47;28.69;97040.34;4910453;29;20079;-67
2022/06/09 07:39:37;;;;;;;45.53;8.50;;;;;;;41.50;28.83;97034.38;4910810;29;20107;-67
2022/06/09 07:42:18;;;;;;;62.73;9.60;;;;;;;41.31;26.85;97025.31;4929141;29;20055;-66
2022/06/09 07:45:09;;;;;;;29.10;7.90;;;;;;;41.45;31.44;97022.75;4928962;29;20060;-66
2022/06/09 07:47:51;;;;;;;38.72;7.90;;;;;;;41.46;30.93;97025.19;4929776;29;20138;-66
2022/06/09 07:50:41;;;;;;;42.85;8.15;;;;;;;41.39;29.12;97011.19;4929675;29;20134;-66
2022/06/09 07:53:25;;;;;;;32.47;7.20;;;;;;;41.40;29.41;97017.41;4929918;29;20575;-66
2022/06/09 07:56:14;;;;;;;44.20;7.25;;;;;;;41.38;29.56;97006.88;4915753;29;20062;-67
2022/06/09 07:58:57;;;;;;;28.42;7.60;;;;;;;41.34;25.78;97015.84;4930109;29;20383;-66
2022/06/09 08:01:46;;;;;;;39.00;7.80;;;;;;;41.33;26.79;97006.13;4929323;29;20428;-66
2022/06/09 08:04:28;;;;;;;44.60;8.27;;;;;;;41.33;28.41;97009.63;4929808;29;20070;-66
2022/06/09 08:07:17;;;;;;;36.70;7.03;;;;;;;41.21;26.52;97001.06;4929592;29;20051;-67
2022/06/09 08:10:06;;;;;;;33.80;7.25;;;;;;;41.27;29.88;97000.75;4929968;29;20439;-67
2022/06/09 08:12:59;;;;;;;33.92;7.13;;;;;;;41.14;30.63;96995.19;4928980;29;20048;-67
2022/06/09 08:15:48;;;;;;;39.67;8.32;;;;;;;41.18;27.85;96997.06;4926409;29;20748;-67
2022/06/09 08:18:43;;;;;;;51.90;8.60;;;;;;;41.17;27.34;96995.44;4906075;29;20139;-66
2022/06/09 08:21:19;;;;;;;38.95;8.25;;;;;;;41.03;28.19;96989.03;4915258;29;20083;-66
2022/06/09 08:24:33;;;;;;;35.95;8.07;;;;;;;40.92;27.04;96982.09;4928967;29;20461;-65
2022/06/09 08:27:09;;;;;;;42.17;9.30;;;;;;;40.97;27.25;96981.25;4928282;29;20058;-65
2022/06/09 08:29:57;;;;;;;34.97;8.00;;;;;;;41.03;31.05;96980.13;4930467;29;20071;-67
2022/06/09 08:32:40;;;;;;;37.83;9.13;;;;;;;41.02;29.22;96971.22;4935418;28;20047;-68
2022/06/09 08:35:30;;;;;;;34.50;8.48;;;;;;;41.07;29.29;96979.28;4934031;28;20052;-67
2022/06/09 08:38:14;;;;;;;29.83;7.00;;;;;;;41.10;27.33;96973.34;4941686;28;20118;-68
2022/06/09 08:41:36;;;;;;;28.25;6.28;;;;;;;41.06;26.32;96966.84;4941798;28;20055;-66
2022/06/09 08:44:52;;;;;;;39.58;6.97;;;;;;;41.14;27.33;96977.06;4930862;28;20063;-65
2022/06/09 08:47:49;;;;;;;27.50;6.28;;;;;;;41.14;24.14;96971.66;4940201;28;20054;-66
2022/06/09 08:50:48;;;;;;;23.50;5.20;;;;;;;41.11;26.60;96969.50;4920590;29;20074;-67
2022/06/09 08:53:42;;;;;;;48.88;6.68;;;;;;;41.04;26.84;96963.59;4939545;28;20047;-66
2022/06/09 08:56:31;;;;;;;27.95;6.68;;;;;;;41.06;25.25;96968.72;4928941;29;20063;-65
2022/06/09 08:59:25;;;;;;;30.95;5.45;;;;;;;41.09;27.32;96962.78;4934039;28;20142;-67
2022/06/09 09:02:42;;;;;;;27.50;5.57;;;;;;;40.93;26.47;96948.59;4930951;28;20052;-67
2022/06/09 09:05:54;;;;;;;29.33;6.10;;;;;;;40.85;27.80;96954.59;4920149;29;20069;-65
2022/06/09 09:08:38;;;;;;;42.78;8.63;;;;;;;40.90;29.33;96941.03;4932216;29;20051;-66
2022/06/09 09:11:38;;;;;;;38.08;8.73;;;;;;;40.84;29.48;96937.56;4933232;28;20055;-66
2022/06/09 09:14:28;;;;;;;26.33;6.57;;;;;;;40.78;28.48;96929.78;4582938;29;10000654;-64
2022/06/09 09:17:36;;;;;;;28.60;7.45;;;;;;;40.72;29.03;96928.19;4924670;29;20051;-65
2022/06/09 09:20:40;;;;;;;39.55;7.45;;;;;;;40.78;26.70;96929.78;4921465;29;20813;-66
2022/06/09 09:23:33;;;;;;;36.28;6.47;;;;;;;40.82;27.39;96933.53;4585840;29;10001133;-66
2022/06/09 09:26:36;;;;;;;41.65;6.68;;;;;;;40.78;29.13;96924.38;4924277;29;20055;-66
2022/06/09 09:29:39;;;;;;;34.75;6.88;;;;;;;40.73;26.76;96924.41;4925974;29;20067;-66
2022/06/09 09:32:36;;;;;;;40.00;6.65;;;;;;;40.78;29.84;96917.09;4924197;28;20509;-65
2022/06/09 09:35:27;;;;;;;33.25;6.50;;;;;;;40.78;28.92;96916.28;4919702;29;20063;-66
2022/06/09 09:38:20;;;;;;;39.90;7.68;;;;;;;40.80;26.60;96916.78;4923100;29;20047;-68
2022/06/09 09:41:08;;;;;;;36.42;5.00;;;;;;;40.86;26.18;96923.78;4933928;29;20071;-67
2022/06/09 09:44:24;;;;;;;30.48;5.47;;;;;;;40.56;27.18;96913.16;4914613;29;20084;-66
2022/06/09 09:47:07;;;;;;;34.70;5.65;;;;;;;40.55;25.41;96917.75;4894899;29;20075;-66
2022/06/09 09:50:06;;;;;;;32.10;5.25;;;;;;;40.42;26.85;96908.41;4904348;29;20064;-66
2022/06/09 09:52:52;;;;;;;22.15;4.30;;;;;;;40.35;25.87;96897.09;4906813;29;20059;-66
2022/06/09 09:56:09;;;;;;;26.23;5.97;;;;;;;40.25;26.00;96896.34;4904856;29;20131;-66
2022/06/09 09:59:06;;;;;;;22.08;4.82;;;;;;;40.05;28.87;96892.69;4905852;29;20119;-66
2022/06/09 10:09:23;;;;;;;21.73;4.85;;;;;;;39.98;28.36;96880.56;4905187;29;20063;-66
2022/06/09 10:12:30;;;;;;;;;;;;;;;40.13;28.09;96878.59;4906181;29;20059;-67
2022/06/09 10:15:46;;;;;;;27.77;4.80;;;;;;;40.25;25.10;96877.47;4830428;29;19928;-67
2022/06/09 10:18:28;;;;;;;42.75;5.50;;;;;;;40.44;24.71;96876.53;4830563;29;20734;-65
2022/06/09 10:21:33;;;;;;;27.60;4.75;;;;;;;40.65;23.18;96873.66;4830915;29;20750;-67
2022/06/09 10:24:24;;;;;;;31.33;5.55;;;;;;;40.73;23.44;96870.38;4830668;29;20050;-65
2022/06/09 10:27:27;;;;;;;38.20;5.50;;;;;;;40.70;24.66;96865.56;4825108;29;20539;-65
2022/06/09 10:30:16;;;;;;;37.38;5.70;;;;;;;40.51;26.22;96858.09;4823180;29;20458;-67
2022/06/09 10:33:56;;;;;;;19.80;4.90;;;;;;;40.28;27.11;96856.13;4828815;29;20085;-65
2022/06/09 10:36:41;;;;;;;29.98;4.78;;;;;;;40.38;25.35;96855.25;4830166;29;20059;-65
2022/06/09 10:39:54;;;;;;;29.65;4.78;;;;;;;40.34;25.61;96843.38;4831006;29;20114;-66
2022/06/09 10:43:05;;;;;;;25.92;5.60;;;;;;;40.14;27.55;96841.63;4851625;29;20462;-67
2022/06/09 10:46:05;;;;;;;23.13;4.85;;;;;;;40.11;27.64;96848.38;4862906;29;20048;-65
2022/06/09 10:55:58;;;;;;;27.45;4.55;;;;;;;40.24;26.96;96838.03;4920423;29;20165;-66
2022/06/09 10:59:06;;;;;;;33.03;6.85;;;;;;;40.20;25.48;96837.78;4910398;29;20055;-67
2022/06/09 11:01:54;;;;;;;33.95;5.13;;;;;;;40.04;27.96;96836.28;4909891;29;20056;-65
2022/06/09 11:04:44;;;;;;;22.13;4.82;;;;;;;39.98;26.37;96835.50;4906007;29;20051;-66
2022/06/09 11:07:47;;;;;;;26.85;5.88;;;;;;;40.09;27.48;96841.63;4908553;29;20379;-66
2022/06/09 11:10:51;;;;;;;21.77;5.65;;;;;;;40.17;25.54;96833.75;4911076;29;20066;-68
2022/06/09 11:13:49;;;;;;;19.73;4.93;;;;;;;40.00;27.76;96832.50;4904729;29;20052;-65
2022/06/09 11:16:57;;;;;;;31.35;5.20;;;;;;;39.92;28.37;96825.81;4911055;29;20155;-67
2022/06/09 11:19:57;;;;;;;33.45;5.88;;;;;;;39.88;27.56;96822.06;4913939;29;20048;-65
2022/06/09 11:22:46;;;;;;;22.85;4.53;;;;;;;39.99;25.85;96833.63;4914006;29;20079;-67
2022/06/09 11:25:46;;;;;;;28.38;4.88;;;;;;;39.94;27.57;96822.84;4909014;29;20063;-66
2022/06/09 11:28:58;;;;;;;44.05;7.28;;;;;;;39.92;27.93;96817.72;4911060;29;20048;-66
2022/06/09 11:32:04;;;;;;;33.00;6.65;;;;;;;39.69;29.76;96807.56;4907545;29;20132;-67
2022/06/09 11:35:29;;;;;;;25.15;5.63;;;;;;;39.82;26.14;96814.28;4907989;29;20063;-66
2022/06/09 11:38:44;;;;;;;43.50;5.75;;;;;;;39.67;28.95;96815.94;4905509;29;20048;-66
2022/06/09 11:41:47;;;;;;;34.05;5.95;;;;;;;39.60;29.08;96817.31;4903481;29;20059;-66
2022/06/09 11:44:42;;;;;;;37.72;5.65;;;;;;;39.47;30.35;96807.97;4922316;29;20046;-65
2022/06/09 11:47:33;;;;;;;28.00;6.53;;;;;;;39.71;27.88;96810.81;4928444;29;20067;-66
2022/06/09 11:50:25;;;;;;;38.33;6.15;;;;;;;39.66;25.92;96811.66;4928980;29;20054;-67
2022/06/09 11:53:14;;;;;;;35.47;6.25;;;;;;;39.59;28.14;96813.03;4928635;29;20066;-66
2022/06/09 11:56:33;;;;;;;35.05;6.47;;;;;;;39.58;26.75;96816.81;4927766;29;20051;-66
2022/06/09 11:59:43;;;;;;;26.98;7.07;;;;;;;39.47;27.52;96807.97;4928679;29;20380;-68
2022/06/09 12:02:46;;;;;;;26.55;5.80;;;;;;;39.47;28.28;96818.75;4929073;29;20055;-67
2022/06/09 12:05:58;;;;;;;24.70;6.55;;;;;;;39.31;31.16;96814.47;4928186;29;20111;-67
2022/06/09 12:09:18;;;;;;;35.03;8.23;;;;;;;39.10;29.48;96816.44;4928778;29;20169;-67
2022/06/09 12:12:03;;;;;;;39.40;7.57;;;;;;;38.80;32.67;96822.63;4915031;29;20709;-65
2022/06/09 12:14:51;;;;;;;32.13;5.90;;;;;;;38.79;32.47;96821.03;4932564;29;20808;-67
2022/06/09 12:18:08;;;;;;;33.65;6.53;;;;;;;38.90;29.75;96825.31;4937667;28;20044;-66
2022/06/09 12:20:55;;;;;;;34.58;6.50;;;;;;;38.92;30.02;96831.25;4907055;29;20056;-65
2022/06/09 12:23:44;;;;;;;27.02;7.07;;;;;;;38.82;29.96;96819.69;4911115;29;20458;-66
2022/06/09 12:26:34;;;;;;;26.63;6.10;;;;;;;38.97;31.20;96830.44;4913439;29;20048;-66
2022/06/09 12:29:37;;;;;;;33.53;5.65;;;;;;;38.78;30.01;96838.28;4937239;29;20146;-67
2022/06/09 12:32:20;;;;;;;32.10;6.15;;;;;;;38.70;30.58;96836.13;4930830;29;20142;-67
2022/06/09 12:35:27;;;;;;;34.20;6.47;;;;;;;38.83;29.28;96843.66;4941881;29;20114;-66
2022/06/09 12:38:22;;;;;;;39.47;6.18;;;;;;;38.89;31.09;96839.88;4927215;28;20083;-66
2022/06/09 12:41:43;;;;;;;34.17;6.28;;;;;;;38.77;31.10;96842.03;4935505;28;20490;-66
2022/06/09 12:44:46;;;;;;;41.45;5.82;;;;;;;38.62;32.00;96837.50;4935456;28;20111;-67
2022/06/09 12:47:41;;;;;;;44.85;7.15;;;;;;;38.53;32.76;96838.28;4923939;28;20059;-65
2022/06/09 12:50:30;;;;;;;37.70;7.07;;;;;;;38.65;31.15;96839.63;4936624;28;20612;-66
2022/06/09 12:53:23;;;;;;;37.60;6.93;;;;;;;38.56;32.21;96843.13;4934364;29;20066;-66
2022/06/09 12:56:30;;;;;;;38.72;6.55;;;;;;;38.59;31.27;96850.66;4939200;29;20468;-67
2022/06/09 12:59:33;;;;;;;41.58;5.97;;;;;;;38.52;32.11;96847.44;4933881;28;20067;-66
2022/06/09 13:02:28;;;;;;;47.35;7.28;;;;;;;38.45;30.69;96853.06;4934614;29;20082;-66
2022/06/09 13:05:24;;;;;;;33.70;6.47;;;;;;;38.39;31.60;96853.34;4933943;28;20056;-67
2022/06/09 13:08:18;;;;;;;37.17;6.28;;;;;;;38.24;30.92;96862.19;4928052;29;20356;-66
2022/06/09 13:11:14;;;;;;;36.35;5.97;;;;;;;38.15;31.43;96856.53;4927881;29;20051;-66
2022/06/09 13:13:56;;;;;;;34.38;5.30;;;;;;;38.22;30.75;96857.09;4925703;29;20386;-66
2022/06/09 13:16:51;;;;;;;37.08;6.28;;;;;;;38.11;30.75;96863.50;4926649;29;20058;-66
2022/06/09 13:19:41;;;;;;;43.30;7.85;;;;;;;38.13;30.21;96861.38;4931156;29;20559;-65
2022/06/09 13:22:32;;;;;;;29.90;6.07;;;;;;;38.01;30.61;96866.13;4939099;28;20074;-66
2022/06/09 13:25:19;;;;;;;30.10;5.30;;;;;;;37.82;31.42;96863.16;4938736;29;20502;-65
2022/06/09 13:28:09;;;;;;;64.90;6.80;;;;;;;37.72;31.37;96871.16;4937554;28;20058;-67
2022/06/09 13:30:53;;;;;;;39.53;6.05;;;;;;;37.65;32.49;96869.81;4934738;29;20087;-65
2022/06/09 13:33:50;;;;;;;37.42;7.55;;;;;;;37.43;33.19;96868.06;4933782;29;20070;-64
2022/06/09 13:36:48;;;;;;;39.08;6.47;;;;;;;37.27;35.19;96866.38;4927847;29;20047;-64
2022/06/09 13:39:32;;;;;;;42.65;5.60;;;;;;;37.03;41.85;96867.81;4926480;29;20069;-65